sensor_id;sensor_type;location;lat;lon;timestamp;P1;durP1;ratioP1;P2;durP2;ratioP2
47669;SDS011;33408;52.062;11.722;2023-12-20T00:01:38;2.33;;;1.40;;
47669;SDS011;33408;52.062;11.722;2023-12-20T00:04:06;3.25;;;1.70;;
47669;SDS011;33408;52.062;11.722;2023-12-20T00:06:33;3.03;;;1.30;;
47669;SDS011;33408;52.062;11.722;2023-12-20T00:09:00;3.03;;;1.35;;
47669;SDS011;33408;52.062;11.722;2023-12-20T00:11:26;3.88;;;1.60;;
47669;SDS011;33408;52.062;11.722;2023-12-20T00:13:54;3.33;;;1.55;;
47669;SDS011;33408;52.062;11.722;2023-12-20T00:16:21;2.15;;;1.38;;
47669;SDS011;33408;52.062;11.722;2023-12-20T00:18:48;5.28;;;2.65;;
47669;SDS011;33408;52.062;11.722;2023-12-20T00:21:15;3.17;;;1.65;;
47669;SDS011;33408;52.062;11.722;2023-12-20T00:23:42;2.20;;;1.30;;
47669;SDS011;33408;52.062;11.722;2023-12-20T00:26:08;2.10;;;1.13;;
47669;SDS011;33408;52.062;11.722;2023-12-20T00:28:35;1.50;;;1.10;;
47669;SDS011;33408;52.062;11.722;2023-12-20T00:31:03;2.50;;;1.30;;
47669;SDS011;33408;52.062;11.722;2023-12-20T00:33:29;2.05;;;1.15;;
47669;SDS011;33408;52.062;11.722;2023-12-20T00:35:56;1.73;;;1.13;;
47669;SDS011;33408;52.062;11.722;2023-12-20T00:38:22;1.92;;;1.10;;
47669;SDS011;33408;52.062;11.722;2023-12-20T00:40:49;1.70;;;1.10;;
47669;SDS011;33408;52.062;11.722;2023-12-20T00:43:16;1.30;;;0.95;;
47669;SDS011;33408;52.062;11.722;2023-12-20T00:45:42;2.80;;;1.10;;
47669;SDS011;33408;52.062;11.722;2023-12-20T00:48:10;0.98;;;0.88;;
47669;SDS011;33408;52.062;11.722;2023-12-20T00:50:37;1.58;;;1.20;;
47669;SDS011;33408;52.062;11.722;2023-12-20T00:53:03;2.80;;;1.10;;
47669;SDS011;33408;52.062;11.722;2023-12-20T00:55:30;1.52;;;1.00;;
47669;SDS011;33408;52.062;11.722;2023-12-20T00:57:57;2.80;;;1.10;;
47669;SDS011;33408;52.062;11.722;2023-12-20T01:00:24;2.17;;;1.20;;
47669;SDS011;33408;52.062;11.722;2023-12-20T01:02:51;2.72;;;1.20;;
47669;SDS011;33408;52.062;11.722;2023-12-20T01:05:19;2.92;;;1.50;;
47669;SDS011;33408;52.062;11.722;2023-12-20T01:07:48;2.17;;;1.30;;
47669;SDS011;33408;52.062;11.722;2023-12-20T01:10:14;2.28;;;1.33;;
47669;SDS011;33408;52.062;11.722;2023-12-20T01:12:42;1.70;;;1.10;;
47669;SDS011;33408;52.062;11.722;2023-12-20T01:15:09;2.70;;;1.55;;
47669;SDS011;33408;52.062;11.722;2023-12-20T01:17:36;1.90;;;1.17;;
47669;SDS011;33408;52.062;11.722;2023-12-20T01:20:03;1.92;;;1.20;;
47669;SDS011;33408;52.062;11.722;2023-12-20T01:22:32;2.30;;;1.33;;
47669;SDS011;33408;52.062;11.722;2023-12-20T01:25:00;2.10;;;1.25;;
47669;SDS011;33408;52.062;11.722;2023-12-20T01:27:27;4.13;;;1.70;;
47669;SDS011;33408;52.062;11.722;2023-12-20T01:29:54;2.97;;;1.50;;
47669;SDS011;33408;52.062;11.722;2023-12-20T01:32:20;2.70;;;1.40;;
47669;SDS011;33408;52.062;11.722;2023-12-20T01:34:47;1.90;;;1.30;;
47669;SDS011;33408;52.062;11.722;2023-12-20T01:37:14;2.38;;;1.45;;
47669;SDS011;33408;52.062;11.722;2023-12-20T01:39:42;4.93;;;1.38;;
47669;SDS011;33408;52.062;11.722;2023-12-20T01:42:08;1.80;;;1.10;;
47669;SDS011;33408;52.062;11.722;2023-12-20T01:44:35;2.17;;;1.38;;
47669;SDS011;33408;52.062;11.722;2023-12-20T01:47:01;3.10;;;1.73;;
47669;SDS011;33408;52.062;11.722;2023-12-20T01:49:28;2.28;;;1.55;;
47669;SDS011;33408;52.062;11.722;2023-12-20T01:51:55;4.93;;;2.13;;
47669;SDS011;33408;52.062;11.722;2023-12-20T01:57:45;4.00;;;2.22;;
47669;SDS011;33408;52.062;11.722;2023-12-20T02:00:12;3.95;;;2.28;;
47669;SDS011;33408;52.062;11.722;2023-12-20T02:02:40;4.78;;;2.70;;
47669;SDS011;33408;52.062;11.722;2023-12-20T02:05:07;5.82;;;3.75;;
47669;SDS011;33408;52.062;11.722;2023-12-20T02:07:35;8.23;;;4.63;;
47669;SDS011;33408;52.062;11.722;2023-12-20T02:10:01;8.52;;;5.70;;
47669;SDS011;33408;52.062;11.722;2023-12-20T02:12:29;9.55;;;7.03;;
47669;SDS011;33408;52.062;11.722;2023-12-20T02:14:56;9.95;;;7.30;;
47669;SDS011;33408;52.062;11.722;2023-12-20T02:17:23;9.32;;;6.90;;
47669;SDS011;33408;52.062;11.722;2023-12-20T02:19:50;9.68;;;7.22;;
47669;SDS011;33408;52.062;11.722;2023-12-20T02:22:18;8.20;;;5.53;;
47669;SDS011;33408;52.062;11.722;2023-12-20T02:24:44;8.13;;;5.03;;
47669;SDS011;33408;52.062;11.722;2023-12-20T02:27:11;8.93;;;4.25;;
47669;SDS011;33408;52.062;11.722;2023-12-20T02:29:38;8.90;;;3.50;;
47669;SDS011;33408;52.062;11.722;2023-12-20T02:32:05;6.57;;;3.35;;
47669;SDS011;33408;52.062;11.722;2023-12-20T02:34:32;9.90;;;3.08;;
47669;SDS011;33408;52.062;11.722;2023-12-20T02:36:58;6.05;;;3.03;;
47669;SDS011;33408;52.062;11.722;2023-12-20T02:39:26;6.18;;;2.30;;
47669;SDS011;33408;52.062;11.722;2023-12-20T02:41:53;8.20;;;2.65;;
47669;SDS011;33408;52.062;11.722;2023-12-20T02:44:19;5.63;;;2.55;;
47669;SDS011;33408;52.062;11.722;2023-12-20T02:46:46;7.13;;;2.13;;
47669;SDS011;33408;52.062;11.722;2023-12-20T02:49:12;5.00;;;2.38;;
47669;SDS011;33408;52.062;11.722;2023-12-20T02:51:39;5.00;;;2.42;;
47669;SDS011;33408;52.062;11.722;2023-12-20T02:54:06;8.43;;;2.70;;
47669;SDS011;33408;52.062;11.722;2023-12-20T02:56:34;7.70;;;2.40;;
47669;SDS011;33408;52.062;11.722;2023-12-20T02:59:01;7.22;;;2.88;;
47669;SDS011;33408;52.062;11.722;2023-12-20T03:01:30;8.15;;;2.88;;
47669;SDS011;33408;52.062;11.722;2023-12-20T03:03:57;8.40;;;2.90;;
47669;SDS011;33408;52.062;11.722;2023-12-20T03:06:23;8.30;;;3.08;;
47669;SDS011;33408;52.062;11.722;2023-12-20T03:08:51;7.88;;;2.78;;
47669;SDS011;33408;52.062;11.722;2023-12-20T03:11:17;8.52;;;2.75;;
47669;SDS011;33408;52.062;11.722;2023-12-20T03:13:45;9.82;;;3.00;;
47669;SDS011;33408;52.062;11.722;2023-12-20T03:16:12;17.25;;;3.55;;
47669;SDS011;33408;52.062;11.722;2023-12-20T03:18:41;8.38;;;2.60;;
47669;SDS011;33408;52.062;11.722;2023-12-20T03:21:07;7.38;;;2.92;;
47669;SDS011;33408;52.062;11.722;2023-12-20T03:23:34;10.82;;;2.70;;
47669;SDS011;33408;52.062;11.722;2023-12-20T03:26:00;10.65;;;2.88;;
47669;SDS011;33408;52.062;11.722;2023-12-20T03:28:27;10.10;;;3.45;;
47669;SDS011;33408;52.062;11.722;2023-12-20T03:30:55;10.73;;;3.53;;
47669;SDS011;33408;52.062;11.722;2023-12-20T03:33:22;9.27;;;3.40;;
47669;SDS011;33408;52.062;11.722;2023-12-20T03:35:48;9.65;;;3.47;;
47669;SDS011;33408;52.062;11.722;2023-12-20T03:38:14;7.32;;;3.10;;
47669;SDS011;33408;52.062;11.722;2023-12-20T03:40:40;10.98;;;3.40;;
47669;SDS011;33408;52.062;11.722;2023-12-20T03:43:07;8.25;;;3.17;;
47669;SDS011;33408;52.062;11.722;2023-12-20T03:45:34;15.35;;;4.28;;
47669;SDS011;33408;52.062;11.722;2023-12-20T03:48:02;10.52;;;4.00;;
47669;SDS011;33408;52.062;11.722;2023-12-20T03:50:29;14.15;;;4.10;;
47669;SDS011;33408;52.062;11.722;2023-12-20T03:52:55;15.65;;;4.45;;
47669;SDS011;33408;52.062;11.722;2023-12-20T03:55:22;13.35;;;3.97;;
47669;SDS011;33408;52.062;11.722;2023-12-20T03:57:48;12.88;;;4.30;;
47669;SDS011;33408;52.062;11.722;2023-12-20T04:00:15;12.35;;;3.42;;
47669;SDS011;33408;52.062;11.722;2023-12-20T04:02:42;11.55;;;4.35;;
47669;SDS011;33408;52.062;11.722;2023-12-20T04:05:10;20.40;;;4.47;;
47669;SDS011;33408;52.062;11.722;2023-12-20T04:07:37;12.77;;;4.15;;
47669;SDS011;33408;52.062;11.722;2023-12-20T04:10:04;11.52;;;3.95;;
47669;SDS011;33408;52.062;11.722;2023-12-20T04:12:32;11.73;;;3.67;;
47669;SDS011;33408;52.062;11.722;2023-12-20T04:14:59;10.18;;;3.70;;
47669;SDS011;33408;52.062;11.722;2023-12-20T04:17:25;17.55;;;4.63;;
47669;SDS011;33408;52.062;11.722;2023-12-20T04:19:52;13.77;;;3.75;;
47669;SDS011;33408;52.062;11.722;2023-12-20T04:22:20;13.68;;;4.60;;
47669;SDS011;33408;52.062;11.722;2023-12-20T04:24:46;14.68;;;3.72;;
47669;SDS011;33408;52.062;11.722;2023-12-20T04:27:13;14.15;;;4.55;;
47669;SDS011;33408;52.062;11.722;2023-12-20T04:29:39;25.40;;;4.75;;
47669;SDS011;33408;52.062;11.722;2023-12-20T04:32:06;15.65;;;3.42;;
47669;SDS011;33408;52.062;11.722;2023-12-20T04:34:32;10.70;;;2.67;;
47669;SDS011;33408;52.062;11.722;2023-12-20T04:36:59;11.95;;;3.63;;
47669;SDS011;33408;52.062;11.722;2023-12-20T04:39:28;11.75;;;3.72;;
47669;SDS011;33408;52.062;11.722;2023-12-20T04:41:55;11.18;;;3.60;;
47669;SDS011;33408;52.062;11.722;2023-12-20T04:44:21;11.90;;;3.30;;
47669;SDS011;33408;52.062;11.722;2023-12-20T04:46:48;10.85;;;3.17;;
47669;SDS011;33408;52.062;11.722;2023-12-20T04:49:15;9.57;;;3.63;;
47669;SDS011;33408;52.062;11.722;2023-12-20T04:51:41;8.65;;;2.83;;
47669;SDS011;33408;52.062;11.722;2023-12-20T04:54:08;9.18;;;3.13;;
47669;SDS011;33408;52.062;11.722;2023-12-20T04:56:37;9.38;;;2.70;;
47669;SDS011;33408;52.062;11.722;2023-12-20T04:59:03;11.90;;;3.25;;
47669;SDS011;33408;52.062;11.722;2023-12-20T05:01:30;6.70;;;2.63;;
47669;SDS011;33408;52.062;11.722;2023-12-20T05:03:57;10.95;;;2.92;;
47669;SDS011;33408;52.062;11.722;2023-12-20T05:06:23;9.30;;;3.25;;
47669;SDS011;33408;52.062;11.722;2023-12-20T05:08:50;10.70;;;2.50;;
47669;SDS011;33408;52.062;11.722;2023-12-20T05:11:17;14.45;;;2.88;;
47669;SDS011;33408;52.062;11.722;2023-12-20T05:13:45;11.80;;;2.92;;
47669;SDS011;33408;52.062;11.722;2023-12-20T05:16:11;9.85;;;3.00;;
47669;SDS011;33408;52.062;11.722;2023-12-20T05:18:39;11.43;;;3.38;;
47669;SDS011;33408;52.062;11.722;2023-12-20T05:21:05;11.15;;;3.20;;
47669;SDS011;33408;52.062;11.722;2023-12-20T05:23:32;15.00;;;3.35;;
47669;SDS011;33408;52.062;11.722;2023-12-20T05:25:59;9.45;;;2.35;;
47669;SDS011;33408;52.062;11.722;2023-12-20T05:28:25;14.63;;;3.47;;
47669;SDS011;33408;52.062;11.722;2023-12-20T05:30:53;10.90;;;2.90;;
47669;SDS011;33408;52.062;11.722;2023-12-20T05:33:20;10.23;;;2.65;;
47669;SDS011;33408;52.062;11.722;2023-12-20T05:35:47;9.85;;;3.03;;
47669;SDS011;33408;52.062;11.722;2023-12-20T05:38:13;11.77;;;2.97;;
47669;SDS011;33408;52.062;11.722;2023-12-20T05:40:39;11.63;;;3.03;;
47669;SDS011;33408;52.062;11.722;2023-12-20T05:43:05;11.82;;;2.53;;
47669;SDS011;33408;52.062;11.722;2023-12-20T05:45:32;14.30;;;3.55;;
47669;SDS011;33408;52.062;11.722;2023-12-20T05:48:00;13.95;;;3.47;;
47669;SDS011;33408;52.062;11.722;2023-12-20T05:50:27;13.38;;;2.70;;
47669;SDS011;33408;52.062;11.722;2023-12-20T05:52:53;13.35;;;3.08;;
47669;SDS011;33408;52.062;11.722;2023-12-20T05:55:20;12.20;;;3.20;;
47669;SDS011;33408;52.062;11.722;2023-12-20T05:57:47;10.45;;;2.90;;
47669;SDS011;33408;52.062;11.722;2023-12-20T06:00:14;13.00;;;3.10;;
47669;SDS011;33408;52.062;11.722;2023-12-20T06:02:41;16.45;;;3.20;;
47669;SDS011;33408;52.062;11.722;2023-12-20T06:05:09;6.63;;;2.08;;
47669;SDS011;33408;52.062;11.722;2023-12-20T06:07:36;10.93;;;2.38;;
47669;SDS011;33408;52.062;11.722;2023-12-20T06:10:03;5.80;;;1.70;;
47669;SDS011;33408;52.062;11.722;2023-12-20T06:12:31;13.30;;;4.38;;
47669;SDS011;33408;52.062;11.722;2023-12-20T06:15:00;13.05;;;4.55;;
47669;SDS011;33408;52.062;11.722;2023-12-20T06:17:27;10.68;;;4.32;;
47669;SDS011;33408;52.062;11.722;2023-12-20T06:19:55;10.82;;;3.97;;
47669;SDS011;33408;52.062;11.722;2023-12-20T06:22:23;9.43;;;2.53;;
47669;SDS011;33408;52.062;11.722;2023-12-20T06:24:50;9.75;;;2.40;;
47669;SDS011;33408;52.062;11.722;2023-12-20T06:27:16;7.50;;;1.90;;
47669;SDS011;33408;52.062;11.722;2023-12-20T06:29:43;9.15;;;2.50;;
47669;SDS011;33408;52.062;11.722;2023-12-20T06:32:10;5.22;;;1.70;;
47669;SDS011;33408;52.062;11.722;2023-12-20T06:34:36;8.85;;;2.58;;
47669;SDS011;33408;52.062;11.722;2023-12-20T06:37:04;9.50;;;2.60;;
47669;SDS011;33408;52.062;11.722;2023-12-20T06:39:32;9.13;;;3.08;;
47669;SDS011;33408;52.062;11.722;2023-12-20T06:41:59;15.30;;;3.33;;
47669;SDS011;33408;52.062;11.722;2023-12-20T06:44:26;8.82;;;2.22;;
47669;SDS011;33408;52.062;11.722;2023-12-20T06:46:52;9.45;;;2.30;;
47669;SDS011;33408;52.062;11.722;2023-12-20T06:49:19;6.78;;;2.08;;
47669;SDS011;33408;52.062;11.722;2023-12-20T06:51:45;8.00;;;1.50;;
47669;SDS011;33408;52.062;11.722;2023-12-20T06:54:12;7.10;;;1.88;;
47669;SDS011;33408;52.062;11.722;2023-12-20T06:56:40;8.57;;;2.30;;
47669;SDS011;33408;52.062;11.722;2023-12-20T06:59:07;9.77;;;2.45;;
47669;SDS011;33408;52.062;11.722;2023-12-20T07:01:33;8.30;;;1.95;;
47669;SDS011;33408;52.062;11.722;2023-12-20T07:04:00;5.50;;;1.63;;
47669;SDS011;33408;52.062;11.722;2023-12-20T07:06:26;10.48;;;1.95;;
47669;SDS011;33408;52.062;11.722;2023-12-20T07:08:53;8.13;;;2.05;;
47669;SDS011;33408;52.062;11.722;2023-12-20T07:11:20;4.80;;;1.38;;
47669;SDS011;33408;52.062;11.722;2023-12-20T07:13:48;5.55;;;2.00;;
47669;SDS011;33408;52.062;11.722;2023-12-20T07:16:14;7.47;;;2.20;;
47669;SDS011;33408;52.062;11.722;2023-12-20T07:18:41;5.97;;;1.83;;
47669;SDS011;33408;52.062;11.722;2023-12-20T07:21:08;8.35;;;1.75;;
47669;SDS011;33408;52.062;11.722;2023-12-20T07:23:34;6.82;;;2.20;;
47669;SDS011;33408;52.062;11.722;2023-12-20T07:26:01;10.25;;;2.47;;
47669;SDS011;33408;52.062;11.722;2023-12-20T07:28:29;10.55;;;2.13;;
47669;SDS011;33408;52.062;11.722;2023-12-20T07:30:57;6.93;;;2.15;;
47669;SDS011;33408;52.062;11.722;2023-12-20T07:33:23;8.18;;;2.55;;
47669;SDS011;33408;52.062;11.722;2023-12-20T07:35:50;11.63;;;2.28;;
47669;SDS011;33408;52.062;11.722;2023-12-20T07:38:17;9.60;;;2.17;;
47669;SDS011;33408;52.062;11.722;2023-12-20T07:40:44;9.70;;;2.35;;
47669;SDS011;33408;52.062;11.722;2023-12-20T07:43:10;13.38;;;2.97;;
47669;SDS011;33408;52.062;11.722;2023-12-20T07:45:37;9.73;;;2.65;;
47669;SDS011;33408;52.062;11.722;2023-12-20T07:48:05;8.60;;;2.47;;
47669;SDS011;33408;52.062;11.722;2023-12-20T07:50:33;12.50;;;3.03;;
47669;SDS011;33408;52.062;11.722;2023-12-20T07:52:59;10.35;;;3.13;;
47669;SDS011;33408;52.062;11.722;2023-12-20T07:55:26;13.77;;;3.00;;
47669;SDS011;33408;52.062;11.722;2023-12-20T07:57:53;12.23;;;3.40;;
47669;SDS011;33408;52.062;11.722;2023-12-20T08:00:20;7.47;;;2.33;;
47669;SDS011;33408;52.062;11.722;2023-12-20T08:02:46;12.77;;;3.08;;
47669;SDS011;33408;52.062;11.722;2023-12-20T08:05:14;10.90;;;2.70;;
47669;SDS011;33408;52.062;11.722;2023-12-20T08:07:41;12.10;;;2.85;;
47669;SDS011;33408;52.062;11.722;2023-12-20T08:10:08;13.30;;;2.85;;
47669;SDS011;33408;52.062;11.722;2023-12-20T08:12:34;14.57;;;4.53;;
47669;SDS011;33408;52.062;11.722;2023-12-20T08:15:01;12.65;;;3.00;;
47669;SDS011;33408;52.062;11.722;2023-12-20T08:17:29;16.95;;;3.72;;
47669;SDS011;33408;52.062;11.722;2023-12-20T08:19:55;13.70;;;3.03;;
47669;SDS011;33408;52.062;11.722;2023-12-20T08:22:23;13.13;;;4.10;;
47669;SDS011;33408;52.062;11.722;2023-12-20T08:24:50;9.27;;;2.67;;
47669;SDS011;33408;52.062;11.722;2023-12-20T08:27:16;13.18;;;3.00;;
47669;SDS011;33408;52.062;11.722;2023-12-20T08:29:43;12.15;;;2.78;;
47669;SDS011;33408;52.062;11.722;2023-12-20T08:32:10;13.18;;;2.97;;
47669;SDS011;33408;52.062;11.722;2023-12-20T08:34:37;13.52;;;3.20;;
47669;SDS011;33408;52.062;11.722;2023-12-20T08:37:03;15.00;;;3.35;;
47669;SDS011;33408;52.062;11.722;2023-12-20T08:39:31;15.18;;;3.35;;
47669;SDS011;33408;52.062;11.722;2023-12-20T08:41:58;13.70;;;3.08;;
47669;SDS011;33408;52.062;11.722;2023-12-20T08:44:25;10.63;;;3.10;;
47669;SDS011;33408;52.062;11.722;2023-12-20T08:46:51;10.88;;;3.22;;
47669;SDS011;33408;52.062;11.722;2023-12-20T08:49:18;15.05;;;2.90;;
47669;SDS011;33408;52.062;11.722;2023-12-20T08:51:45;10.77;;;3.17;;
47669;SDS011;33408;52.062;11.722;2023-12-20T08:54:11;12.52;;;3.17;;
47669;SDS011;33408;52.062;11.722;2023-12-20T08:56:39;15.40;;;3.85;;
47669;SDS011;33408;52.062;11.722;2023-12-20T08:59:06;13.85;;;3.00;;
47669;SDS011;33408;52.062;11.722;2023-12-20T09:01:32;13.18;;;3.40;;
47669;SDS011;33408;52.062;11.722;2023-12-20T09:03:59;13.55;;;3.17;;
47669;SDS011;33408;52.062;11.722;2023-12-20T09:06:26;11.35;;;3.28;;
47669;SDS011;33408;52.062;11.722;2023-12-20T09:08:52;13.20;;;3.17;;
47669;SDS011;33408;52.062;11.722;2023-12-20T09:11:19;14.25;;;3.50;;
47669;SDS011;33408;52.062;11.722;2023-12-20T09:13:47;11.30;;;3.42;;
47669;SDS011;33408;52.062;11.722;2023-12-20T09:16:13;13.90;;;3.78;;
47669;SDS011;33408;52.062;11.722;2023-12-20T09:18:40;14.43;;;3.80;;
47669;SDS011;33408;52.062;11.722;2023-12-20T09:21:07;13.13;;;3.83;;
47669;SDS011;33408;52.062;11.722;2023-12-20T09:23:34;13.38;;;3.00;;
47669;SDS011;33408;52.062;11.722;2023-12-20T09:26:01;12.35;;;3.03;;
47669;SDS011;33408;52.062;11.722;2023-12-20T09:28:28;11.40;;;2.80;;
47669;SDS011;33408;52.062;11.722;2023-12-20T09:30:56;11.35;;;3.00;;
47669;SDS011;33408;52.062;11.722;2023-12-20T09:33:23;7.30;;;2.65;;
47669;SDS011;33408;52.062;11.722;2023-12-20T09:35:49;12.25;;;2.97;;
47669;SDS011;33408;52.062;11.722;2023-12-20T09:38:16;10.85;;;2.67;;
47669;SDS011;33408;52.062;11.722;2023-12-20T09:40:43;9.52;;;2.90;;
47669;SDS011;33408;52.062;11.722;2023-12-20T09:43:10;9.35;;;2.88;;
47669;SDS011;33408;52.062;11.722;2023-12-20T09:45:40;13.85;;;3.15;;
47669;SDS011;33408;52.062;11.722;2023-12-20T09:48:09;10.35;;;2.92;;
47669;SDS011;33408;52.062;11.722;2023-12-20T09:50:37;12.38;;;3.58;;
47669;SDS011;33408;52.062;11.722;2023-12-20T09:53:04;10.23;;;2.40;;
47669;SDS011;33408;52.062;11.722;2023-12-20T09:55:34;11.50;;;2.88;;
47669;SDS011;33408;52.062;11.722;2023-12-20T09:58:02;10.40;;;3.08;;
47669;SDS011;33408;52.062;11.722;2023-12-20T10:00:29;11.82;;;2.88;;
47669;SDS011;33408;52.062;11.722;2023-12-20T10:02:56;13.70;;;3.40;;
47669;SDS011;33408;52.062;11.722;2023-12-20T10:05:26;14.02;;;3.50;;
47669;SDS011;33408;52.062;11.722;2023-12-20T10:07:54;11.93;;;3.40;;
47669;SDS011;33408;52.062;11.722;2023-12-20T10:10:20;10.63;;;3.20;;
47669;SDS011;33408;52.062;11.722;2023-12-20T10:13:00;9.80;;;2.60;;
47669;SDS011;33408;52.062;11.722;2023-12-20T10:15:28;7.45;;;2.53;;
47669;SDS011;33408;52.062;11.722;2023-12-20T10:17:55;12.07;;;3.10;;
47669;SDS011;33408;52.062;11.722;2023-12-20T10:20:22;11.82;;;2.70;;
47669;SDS011;33408;52.062;11.722;2023-12-20T10:22:51;7.72;;;3.22;;
47669;SDS011;33408;52.062;11.722;2023-12-20T10:25:19;11.80;;;3.28;;
47669;SDS011;33408;52.062;11.722;2023-12-20T10:27:46;11.93;;;3.33;;
47669;SDS011;33408;52.062;11.722;2023-12-20T10:30:13;11.38;;;2.50;;
47669;SDS011;33408;52.062;11.722;2023-12-20T10:32:40;10.93;;;2.92;;
47669;SDS011;33408;52.062;11.722;2023-12-20T10:35:07;10.10;;;2.65;;
47669;SDS011;33408;52.062;11.722;2023-12-20T10:37:35;10.25;;;2.88;;
47669;SDS011;33408;52.062;11.722;2023-12-20T10:40:03;7.97;;;2.33;;
47669;SDS011;33408;52.062;11.722;2023-12-20T10:42:32;9.77;;;2.58;;
47669;SDS011;33408;52.062;11.722;2023-12-20T10:44:59;8.18;;;2.67;;
47669;SDS011;33408;52.062;11.722;2023-12-20T10:47:26;7.88;;;2.85;;
47669;SDS011;33408;52.062;11.722;2023-12-20T10:49:54;9.15;;;2.90;;
47669;SDS011;33408;52.062;11.722;2023-12-20T10:52:22;9.90;;;3.10;;
47669;SDS011;33408;52.062;11.722;2023-12-20T10:54:49;10.98;;;3.13;;
47669;SDS011;33408;52.062;11.722;2023-12-20T10:57:18;10.13;;;3.00;;
47669;SDS011;33408;52.062;11.722;2023-12-20T10:59:45;7.75;;;2.65;;
47669;SDS011;33408;52.062;11.722;2023-12-20T11:02:14;10.48;;;3.10;;
47669;SDS011;33408;52.062;11.722;2023-12-20T11:04:42;10.02;;;2.90;;
47669;SDS011;33408;52.062;11.722;2023-12-20T11:09:45;7.55;;;2.63;;
47669;SDS011;33408;52.062;11.722;2023-12-20T11:12:25;7.95;;;2.67;;
47669;SDS011;33408;52.062;11.722;2023-12-20T11:15:01;10.85;;;3.05;;
47669;SDS011;33408;52.062;11.722;2023-12-20T11:17:31;8.65;;;2.88;;
47669;SDS011;33408;52.062;11.722;2023-12-20T11:20:05;7.45;;;3.10;;
47669;SDS011;33408;52.062;11.722;2023-12-20T11:22:37;9.85;;;3.22;;
47669;SDS011;33408;52.062;11.722;2023-12-20T11:25:11;12.25;;;3.78;;
47669;SDS011;33408;52.062;11.722;2023-12-20T11:27:41;8.30;;;2.72;;
47669;SDS011;33408;52.062;11.722;2023-12-20T11:30:09;13.95;;;3.15;;
47669;SDS011;33408;52.062;11.722;2023-12-20T11:32:36;7.28;;;2.45;;
47669;SDS011;33408;52.062;11.722;2023-12-20T11:35:16;7.80;;;2.95;;
47669;SDS011;33408;52.062;11.722;2023-12-20T11:37:45;6.72;;;2.72;;
47669;SDS011;33408;52.062;11.722;2023-12-20T11:40:13;8.43;;;2.58;;
47669;SDS011;33408;52.062;11.722;2023-12-20T11:42:43;6.88;;;2.10;;
47669;SDS011;33408;52.062;11.722;2023-12-20T11:45:11;9.73;;;2.55;;
47669;SDS011;33408;52.062;11.722;2023-12-20T11:47:40;4.68;;;1.63;;
47669;SDS011;33408;52.062;11.722;2023-12-20T11:50:08;6.20;;;2.35;;
47669;SDS011;33408;52.062;11.722;2023-12-20T11:52:35;6.47;;;2.25;;
47669;SDS011;33408;52.062;11.722;2023-12-20T11:55:02;4.85;;;2.35;;
47669;SDS011;33408;52.062;11.722;2023-12-20T11:57:28;7.53;;;2.20;;
47669;SDS011;33408;52.062;11.722;2023-12-20T11:59:56;8.32;;;2.58;;
47669;SDS011;33408;52.062;11.722;2023-12-20T12:02:23;5.85;;;2.22;;
47669;SDS011;33408;52.062;11.722;2023-12-20T12:04:50;5.95;;;2.20;;
47669;SDS011;33408;52.062;11.722;2023-12-20T12:07:17;4.38;;;1.98;;
47669;SDS011;33408;52.062;11.722;2023-12-20T12:09:43;5.05;;;1.85;;
47669;SDS011;33408;52.062;11.722;2023-12-20T12:12:10;6.53;;;2.50;;
47669;SDS011;33408;52.062;11.722;2023-12-20T12:14:38;8.32;;;2.55;;
47669;SDS011;33408;52.062;11.722;2023-12-20T12:17:10;7.60;;;2.22;;
47669;SDS011;33408;52.062;11.722;2023-12-20T12:19:38;12.57;;;2.20;;
47669;SDS011;33408;52.062;11.722;2023-12-20T12:22:04;6.68;;;2.78;;
47669;SDS011;33408;52.062;11.722;2023-12-20T12:24:33;7.03;;;2.78;;
47669;SDS011;33408;52.062;11.722;2023-12-20T12:27:00;8.98;;;2.55;;
47669;SDS011;33408;52.062;11.722;2023-12-20T12:29:27;9.63;;;2.63;;
47669;SDS011;33408;52.062;11.722;2023-12-20T12:31:53;8.55;;;2.97;;
47669;SDS011;33408;52.062;11.722;2023-12-20T12:34:22;7.30;;;2.85;;
47669;SDS011;33408;52.062;11.722;2023-12-20T12:36:48;7.68;;;2.60;;
47669;SDS011;33408;52.062;11.722;2023-12-20T12:39:15;8.48;;;2.83;;
47669;SDS011;33408;52.062;11.722;2023-12-20T12:41:43;7.63;;;2.70;;
47669;SDS011;33408;52.062;11.722;2023-12-20T12:44:10;8.30;;;2.97;;
47669;SDS011;33408;52.062;11.722;2023-12-20T12:46:37;6.70;;;2.55;;
47669;SDS011;33408;52.062;11.722;2023-12-20T12:49:03;6.90;;;2.72;;
47669;SDS011;33408;52.062;11.722;2023-12-20T12:51:31;7.40;;;2.83;;
47669;SDS011;33408;52.062;11.722;2023-12-20T12:53:58;12.43;;;3.88;;
47669;SDS011;33408;52.062;11.722;2023-12-20T12:56:25;8.52;;;2.55;;
47669;SDS011;33408;52.062;11.722;2023-12-20T12:58:52;8.80;;;3.13;;
47669;SDS011;33408;52.062;11.722;2023-12-20T13:01:21;6.90;;;2.47;;
47669;SDS011;33408;52.062;11.722;2023-12-20T13:03:48;6.15;;;2.70;;
47669;SDS011;33408;52.062;11.722;2023-12-20T13:06:14;9.73;;;2.75;;
47669;SDS011;33408;52.062;11.722;2023-12-20T13:08:42;7.63;;;2.83;;
47669;SDS011;33408;52.062;11.722;2023-12-20T13:11:09;7.40;;;2.80;;
47669;SDS011;33408;52.062;11.722;2023-12-20T13:13:36;6.95;;;2.67;;
47669;SDS011;33408;52.062;11.722;2023-12-20T13:16:02;14.30;;;3.47;;
47669;SDS011;33408;52.062;11.722;2023-12-20T13:18:29;5.72;;;2.72;;
47669;SDS011;33408;52.062;11.722;2023-12-20T13:20:56;8.63;;;2.70;;
47669;SDS011;33408;52.062;11.722;2023-12-20T13:23:23;7.63;;;2.65;;
47669;SDS011;33408;52.062;11.722;2023-12-20T13:25:51;6.88;;;2.90;;
47669;SDS011;33408;52.062;11.722;2023-12-20T13:28:17;5.93;;;2.60;;
47669;SDS011;33408;52.062;11.722;2023-12-20T13:30:44;6.85;;;2.75;;
47669;SDS011;33408;52.062;11.722;2023-12-20T13:33:10;5.93;;;2.65;;
47669;SDS011;33408;52.062;11.722;2023-12-20T13:35:37;5.75;;;2.25;;
47669;SDS011;33408;52.062;11.722;2023-12-20T13:38:04;10.65;;;3.30;;
47669;SDS011;33408;52.062;11.722;2023-12-20T13:40:32;10.32;;;2.55;;
47669;SDS011;33408;52.062;11.722;2023-12-20T13:43:00;7.90;;;3.17;;
47669;SDS011;33408;52.062;11.722;2023-12-20T13:45:28;9.02;;;3.30;;
47669;SDS011;33408;52.062;11.722;2023-12-20T13:47:54;6.15;;;2.60;;
47669;SDS011;33408;52.062;11.722;2023-12-20T13:50:21;6.43;;;3.00;;
47669;SDS011;33408;52.062;11.722;2023-12-20T13:52:48;7.10;;;3.28;;
47669;SDS011;33408;52.062;11.722;2023-12-20T13:55:14;6.70;;;3.22;;
47669;SDS011;33408;52.062;11.722;2023-12-20T13:57:41;7.60;;;3.25;;
47669;SDS011;33408;52.062;11.722;2023-12-20T14:00:10;10.63;;;3.63;;
47669;SDS011;33408;52.062;11.722;2023-12-20T14:02:39;8.27;;;2.90;;
47669;SDS011;33408;52.062;11.722;2023-12-20T14:05:06;5.40;;;2.30;;
47669;SDS011;33408;52.062;11.722;2023-12-20T14:07:33;7.30;;;2.88;;
47669;SDS011;33408;52.062;11.722;2023-12-20T14:10:00;5.88;;;2.03;;
47669;SDS011;33408;52.062;11.722;2023-12-20T14:12:27;7.32;;;2.40;;
47669;SDS011;33408;52.062;11.722;2023-12-20T14:14:53;8.00;;;2.00;;
47669;SDS011;33408;52.062;11.722;2023-12-20T14:17:22;8.48;;;2.22;;
47669;SDS011;33408;52.062;11.722;2023-12-20T14:19:48;3.92;;;1.88;;
47669;SDS011;33408;52.062;11.722;2023-12-20T14:22:16;4.97;;;2.25;;
47669;SDS011;33408;52.062;11.722;2023-12-20T14:24:43;6.57;;;1.85;;
47669;SDS011;33408;52.062;11.722;2023-12-20T14:27:10;6.80;;;2.10;;
47669;SDS011;33408;52.062;11.722;2023-12-20T14:29:38;6.32;;;1.60;;
47669;SDS011;33408;52.062;11.722;2023-12-20T14:32:05;3.80;;;1.60;;
47669;SDS011;33408;52.062;11.722;2023-12-20T14:34:33;6.13;;;1.55;;